Time;durP1;ratioP1;P1;durP2;ratioP2;P2;SDS_P1;SDS_P2;PMS_P1;PMS_P2;Temp;Humidity;BMP_temperature;BMP_pressure;BME280_temperature;BME280_humidity;BME280_pressure;Samples;Min_cycle;Max_cycle;Signal;HPM_P1;HPM_P2
2022/03/09 00:00:12;;;;;;;15.82;2.53;;;;;;;;;;4992489;28;20117;-33
2022/03/09 00:02:39;;;;;;;19.27;2.30;;;;;;;;;;4992039;28;20026;-33
2022/03/09 00:05:06;;;;;;;21.48;1.90;;;;;;;;;;4994757;28;20038;-33
2022/03/09 00:07:33;;;;;;;16.25;2.42;;;;;;;;;;4994620;28;20026;-31
2022/03/09 00:10:01;;;;;;;19.98;2.25;;;;;;;;;;5004365;28;20038;-30
2022/03/09 00:12:28;;;;;;;19.08;2.35;;;;;;;;;;4996841;28;20030;-29
2022/03/09 00:14:55;;;;;;;16.08;1.70;;;;;;;;;;5010122;28;20053;-31
2022/03/09 00:17:22;;;;;;;16.38;2.08;;;;;;;;;;5007867;28;20034;-32
2022/03/09 00:19:49;;;;;;;19.13;1.70;;;;;;;;;;4995371;28;20420;-33
2022/03/09 00:22:16;;;;;;;17.92;2.05;;;;;;;;;;5001483;28;20120;-32
2022/03/09 00:24:44;;;;;;;13.40;1.85;;;;;;;;;;4999993;28;20029;-33
2022/03/09 00:27:11;;;;;;;11.00;1.60;;;;;;;;;;4999955;28;20110;-32
2022/03/09 00:29:38;;;;;;;14.27;1.80;;;;;;;;;;4994303;28;20026;-31
2022/03/09 00:32:06;;;;;;;14.43;1.73;;;;;;;;;;4991599;28;20069;-30
2022/03/09 00:34:34;;;;;;;21.48;2.13;;;;;;;;;;4994138;28;20034;-31
2022/03/09 00:37:01;;;;;;;15.85;1.50;;;;;;;;;;4996746;28;20057;-30
2022/03/09 00:39:28;;;;;;;13.52;2.10;;;;;;;;;;5008569;28;20026;-33
2022/03/09 00:41:55;;;;;;;15.02;2.08;;;;;;;;;;5011556;28;20485;-31
2022/03/09 00:44:22;;;;;;;19.95;2.00;;;;;;;;;;5010767;28;20030;-31
2022/03/09 00:46:49;;;;;;;11.30;2.10;;;;;;;;;;5010716;28;20018;-32
2022/03/09 00:49:16;;;;;;;16.48;2.60;;;;;;;;;;4996293;28;20042;-31
2022/03/09 00:51:43;;;;;;;20.30;2.00;;;;;;;;;;5008431;28;20042;-33
2022/03/09 00:54:10;;;;;;;15.82;2.38;;;;;;;;;;5014902;28;20049;-33
2022/03/09 00:56:37;;;;;;;17.98;2.60;;;;;;;;;;5015473;28;20022;-32
2022/03/09 00:59:04;;;;;;;18.00;2.40;;;;;;;;;;5015015;28;20018;-32
2022/03/09 01:01:31;;;;;;;15.02;2.00;;;;;;;;;;5011660;28;20138;-32
2022/03/09 01:03:58;;;;;;;18.92;2.15;;;;;;;;;;5015115;28;20018;-32
2022/03/09 01:06:26;;;;;;;15.02;1.83;;;;;;;;;;5015014;28;20169;-32
2022/03/09 01:08:53;;;;;;;14.65;1.80;;;;;;;;;;5014820;28;20542;-36
2022/03/09 01:11:20;;;;;;;16.77;2.10;;;;;;;;;;5010055;28;20100;-30
2022/03/09 01:13:47;;;;;;;14.30;1.90;;;;;;;;;;5013993;28;20148;-32
2022/03/09 01:16:14;;;;;;;12.70;2.28;;;;;;;;;;5011955;28;20109;-33
2022/03/09 01:18:41;;;;;;;18.58;2.03;;;;;;;;;;5012839;28;20026;-32
2022/03/09 01:21:09;;;;;;;13.23;1.88;;;;;;;;;;5006404;28;20113;-31
2022/03/09 01:23:36;;;;;;;9.45;1.38;;;;;;;;;;5002409;28;20573;-31
2022/03/09 01:26:03;;;;;;;14.98;1.50;;;;;;;;;;5005516;28;20021;-31
2022/03/09 01:28:30;;;;;;;14.27;1.60;;;;;;;;;;4996323;28;20030;-30
2022/03/09 01:30:57;;;;;;;11.05;1.60;;;;;;;;;;4999256;28;20042;-32
2022/03/09 01:33:24;;;;;;;15.48;2.33;;;;;;;;;;4993346;28;20517;-32
2022/03/09 01:35:51;;;;;;;13.02;2.58;;;;;;;;;;4993543;28;20141;-31
2022/03/09 01:38:18;;;;;;;17.00;2.95;;;;;;;;;;4993404;28;20494;-30
2022/03/09 01:40:45;;;;;;;11.27;2.45;;;;;;;;;;4993087;28;20109;-31
2022/03/09 01:43:15;;;;;;;17.80;3.10;;;;;;;;;;4994085;28;20455;-31
2022/03/09 01:45:42;;;;;;;15.73;2.75;;;;;;;;;;4994226;28;20042;-30
2022/03/09 01:48:09;;;;;;;14.73;2.95;;;;;;;;;;4994317;28;20113;-30
2022/03/09 01:50:36;;;;;;;11.50;2.63;;;;;;;;;;4976274;28;20030;-30
2022/03/09 01:53:03;;;;;;;12.57;2.50;;;;;;;;;;4993945;28;20067;-31
2022/03/09 01:55:30;;;;;;;16.95;3.03;;;;;;;;;;4994097;28;20482;-32
2022/03/09 01:57:57;;;;;;;11.80;2.55;;;;;;;;;;4975996;28;20018;-30
2022/03/09 02:00:24;;;;;;;13.30;2.45;;;;;;;;;;4993974;28;20034;-30
2022/03/09 02:02:51;;;;;;;14.13;2.88;;;;;;;;;;5006054;28;20140;-33
2022/03/09 02:05:18;;;;;;;15.30;2.92;;;;;;;;;;5006731;28;20037;-29
2022/03/09 02:10:31;;;;;;;12.32;2.50;;;;;;;;;;5012804;28;20048;-30
2022/03/09 02:12:58;;;;;;;10.20;2.20;;;;;;;;;;5012550;28;20064;-31
2022/03/09 02:15:25;;;;;;;8.25;2.47;;;;;;;;;;4991474;28;20451;-35
2022/03/09 02:17:52;;;;;;;23.20;2.67;;;;;;;;;;5032663;28;20032;-32
2022/03/09 02:20:19;;;;;;;14.52;2.78;;;;;;;;;;5024930;28;20030;-33
2022/03/09 02:22:46;;;;;;;19.50;3.17;;;;;;;;;;5003941;28;20036;-32
2022/03/09 02:25:16;;;;;;;15.85;2.72;;;;;;;;;;5003507;28;20107;-33
2022/03/09 02:27:44;;;;;;;10.75;2.40;;;;;;;;;;4997998;28;20038;-34
2022/03/09 02:30:12;;;;;;;13.13;2.17;;;;;;;;;;4993524;28;20105;-33
2022/03/09 02:32:46;;;;;;;16.42;2.10;;;;;;;;;;4995178;28;20042;-30
2022/03/09 02:35:14;;;;;;;7.75;1.98;;;;;;;;;;5001296;28;20049;-30
2022/03/09 02:37:42;;;;;;;10.77;2.03;;;;;;;;;;5007504;28;20022;-30
2022/03/09 02:40:10;;;;;;;7.97;1.67;;;;;;;;;;5003668;28;20432;-30
2022/03/09 02:42:37;;;;;;;13.60;2.10;;;;;;;;;;5002684;28;20484;-30
2022/03/09 02:45:05;;;;;;;7.03;1.60;;;;;;;;;;5003361;28;20559;-33
2022/03/09 02:47:32;;;;;;;16.10;2.53;;;;;;;;;;5001252;28;20681;-33
2022/03/09 02:49:59;;;;;;;6.25;1.65;;;;;;;;;;5000951;28;20034;-30
2022/03/09 02:52:26;;;;;;;11.73;2.20;;;;;;;;;;5013773;28;20081;-31
2022/03/09 02:54:53;;;;;;;7.82;2.30;;;;;;;;;;5013698;28;20116;-30
2022/03/09 02:57:20;;;;;;;9.70;1.90;;;;;;;;;;5013527;28;20054;-30
2022/03/09 02:59:49;;;;;;;16.23;2.25;;;;;;;;;;5013177;28;20026;-31
2022/03/09 03:02:16;;;;;;;6.43;1.83;;;;;;;;;;5013715;28;20034;-30
2022/03/09 03:04:43;;;;;;;8.55;2.20;;;;;;;;;;5013487;28;20037;-30
2022/03/09 03:07:10;;;;;;;5.85;2.13;;;;;;;;;;5013516;28;20029;-30
2022/03/09 03:09:37;;;;;;;8.38;2.05;;;;;;;;;;5013404;28;20365;-30
2022/03/09 03:12:04;;;;;;;6.50;1.70;;;;;;;;;;5013016;28;20041;-32
2022/03/09 03:14:31;;;;;;;7.80;2.20;;;;;;;;;;5009922;28;20438;-33
2022/03/09 03:16:58;;;;;;;14.05;2.45;;;;;;;;;;5011357;28;20033;-33
2022/03/09 03:19:25;;;;;;;7.65;1.90;;;;;;;;;;5013077;28;20539;-32
2022/03/09 03:21:51;;;;;;;8.20;2.13;;;;;;;;;;5013009;28;20037;-33
2022/03/09 03:24:18;;;;;;;6.15;1.77;;;;;;;;;;5013057;28;20366;-32
2022/03/09 03:26:45;;;;;;;7.63;1.83;;;;;;;;;;5012732;28;20038;-33
2022/03/09 03:29:12;;;;;;;6.38;2.08;;;;;;;;;;5012962;28;20107;-33
2022/03/09 03:31:39;;;;;;;5.47;2.13;;;;;;;;;;5012945;28;20452;-32
2022/03/09 03:34:06;;;;;;;8.93;2.08;;;;;;;;;;5012780;28;20384;-33
2022/03/09 03:36:33;;;;;;;6.55;1.77;;;;;;;;;;5012740;28;20030;-33
2022/03/09 03:39:00;;;;;;;4.70;1.60;;;;;;;;;;5012749;28;20064;-32
2022/03/09 03:41:27;;;;;;;6.65;2.05;;;;;;;;;;5012802;28;20032;-32
2022/03/09 03:43:54;;;;;;;5.70;1.85;;;;;;;;;;5012662;28;20022;-33
2022/03/09 03:46:21;;;;;;;5.10;1.70;;;;;;;;;;5012514;28;20084;-34
2022/03/09 03:48:48;;;;;;;5.43;1.65;;;;;;;;;;5012464;28;20616;-33
2022/03/09 03:51:15;;;;;;;4.88;1.42;;;;;;;;;;5012544;28;20068;-33
2022/03/09 03:53:42;;;;;;;6.22;1.35;;;;;;;;;;5012469;28;20026;-33
2022/03/09 03:56:09;;;;;;;4.65;1.48;;;;;;;;;;5012567;28;20378;-33
2022/03/09 03:58:36;;;;;;;8.55;1.77;;;;;;;;;;5012483;28;20440;-32
2022/03/09 04:01:03;;;;;;;4.85;1.42;;;;;;;;;;5012261;28;20389;-33
2022/03/09 04:03:30;;;;;;;6.18;1.40;;;;;;;;;;4999471;28;20049;-30
2022/03/09 04:05:57;;;;;;;4.57;1.80;;;;;;;;;;5002200;28;20029;-33
2022/03/09 04:08:24;;;;;;;4.43;1.45;;;;;;;;;;5012248;28;20018;-33
2022/03/09 04:10:51;;;;;;;5.32;1.73;;;;;;;;;;5012145;28;20037;-34
2022/03/09 04:13:18;;;;;;;4.30;1.73;;;;;;;;;;5012134;28;20034;-33
2022/03/09 04:15:45;;;;;;;2.67;1.30;;;;;;;;;;4994635;28;20034;-32
2022/03/09 04:18:12;;;;;;;7.38;1.55;;;;;;;;;;5012014;28;20091;-33
2022/03/09 04:20:39;;;;;;;4.43;1.52;;;;;;;;;;5012176;28;20037;-33
2022/03/09 04:23:10;;;;;;;3.53;1.40;;;;;;;;;;4994464;28;20388;-33
2022/03/09 04:25:37;;;;;;;5.32;1.23;;;;;;;;;;5011234;28;20033;-30
2022/03/09 04:28:05;;;;;;;5.07;1.35;;;;;;;;;;5011971;28;20113;-30
2022/03/09 04:30:32;;;;;;;4.70;1.48;;;;;;;;;;4994185;28;20056;-30
2022/03/09 04:32:59;;;;;;;3.45;1.60;;;;;;;;;;5011726;28;20053;-30
2022/03/09 04:35:26;;;;;;;3.55;1.20;;;;;;;;;;5012091;28;21092;-30
2022/03/09 04:37:53;;;;;;;4.15;1.23;;;;;;;;;;5011867;28;20029;-30
2022/03/09 04:40:20;;;;;;;4.65;1.58;;;;;;;;;;5011781;28;20026;-30
2022/03/09 04:42:47;;;;;;;3.25;1.13;;;;;;;;;;5011964;28;20022;-30
2022/03/09 04:45:14;;;;;;;5.50;1.50;;;;;;;;;;5011838;28;20352;-30
2022/03/09 04:47:41;;;;;;;5.60;0.93;;;;;;;;;;5011860;28;20105;-32
2022/03/09 04:50:08;;;;;;;27.17;2.38;;;;;;;;;;5011612;28;20034;-33
2022/03/09 04:52:35;;;;;;;11.25;1.77;;;;;;;;;;5011761;28;20116;-30
2022/03/09 04:55:02;;;;;;;4.75;1.30;;;;;;;;;;5011772;28;20117;-30
2022/03/09 04:57:29;;;;;;;10.45;2.38;;;;;;;;;;5011863;28;20037;-30
2022/03/09 04:59:56;;;;;;;17.48;1.33;;;;;;;;;;5011672;28;20033;-31
2022/03/09 05:02:23;;;;;;;5.55;1.30;;;;;;;;;;5011672;28;20026;-30
2022/03/09 05:04:50;;;;;;;7.80;1.58;;;;;;;;;;5011539;28;20378;-31
2022/03/09 05:07:17;;;;;;;2.85;1.48;;;;;;;;;;5011784;28;20113;-30
2022/03/09 05:09:44;;;;;;;4.63;1.30;;;;;;;;;;5011568;28;20022;-30
2022/03/09 05:12:11;;;;;;;5.95;2.38;;;;;;;;;;5011638;28;20030;-30
2022/03/09 05:14:40;;;;;;;6.75;1.63;;;;;;;;;;5011481;28;20133;-30
2022/03/09 05:17:07;;;;;;;3.50;1.30;;;;;;;;;;5011609;28;20053;-30
2022/03/09 05:19:34;;;;;;;10.65;1.50;;;;;;;;;;5011563;28;20036;-31
2022/03/09 05:22:01;;;;;;;9.07;1.25;;;;;;;;;;5011580;28;20042;-30
2022/03/09 05:24:28;;;;;;;4.93;1.23;;;;;;;;;;5011555;28;20026;-30
2022/03/09 05:26:55;;;;;;;6.97;1.48;;;;;;;;;;5011438;28;20506;-30
2022/03/09 05:29:22;;;;;;;6.18;1.80;;;;;;;;;;5011490;28;20499;-30
2022/03/09 05:31:49;;;;;;;4.13;1.40;;;;;;;;;;5011321;28;20559;-30
2022/03/09 05:34:16;;;;;;;3.47;1.33;;;;;;;;;;5011312;28;20072;-31
2022/03/09 05:36:43;;;;;;;3.40;1.20;;;;;;;;;;5012829;28;20029;-30
2022/03/09 05:39:10;;;;;;;7.28;1.95;;;;;;;;;;5014778;28;20029;-30
2022/03/09 05:41:37;;;;;;;4.93;1.58;;;;;;;;;;5014887;28;20440;-31
2022/03/09 05:44:04;;;;;;;6.88;1.00;;;;;;;;;;5015169;28;20026;-30
2022/03/09 05:46:31;;;;;;;7.55;1.60;;;;;;;;;;5010787;28;20030;-33
2022/03/09 05:48:58;;;;;;;6.80;1.42;;;;;;;;;;5014309;28;20668;-34
2022/03/09 05:51:25;;;;;;;2.90;1.00;;;;;;;;;;5014772;28;20037;-33
2022/03/09 05:53:52;;;;;;;2.78;1.52;;;;;;;;;;5014641;28;20484;-32
2022/03/09 05:56:19;;;;;;;4.78;1.42;;;;;;;;;;5014818;28;20487;-32
2022/03/09 05:58:46;;;;;;;5.20;1.77;;;;;;;;;;5014690;28;20111;-32
2022/03/09 06:01:13;;;;;;;2.72;1.67;;;;;;;;;;5014452;28;20400;-33
2022/03/09 06:03:40;;;;;;;2.67;1.15;;;;;;;;;;5013954;28;20022;-33
2022/03/09 06:06:07;;;;;;;10.75;1.20;;;;;;;;;;5013986;28;20503;-33
2022/03/09 06:08:34;;;;;;;3.08;1.73;;;;;;;;;;5014312;28;20080;-33
2022/03/09 06:11:01;;;;;;;4.53;1.50;;;;;;;;;;5014312;28;20120;-33
2022/03/09 06:13:28;;;;;;;6.88;1.08;;;;;;;;;;5014541;28;20109;-33
2022/03/09 06:15:55;;;;;;;5.28;1.45;;;;;;;;;;5014211;28;20397;-32
2022/03/09 06:18:22;;;;;;;13.95;1.33;;;;;;;;;;5014397;28;20499;-33
2022/03/09 06:20:50;;;;;;;11.57;1.45;;;;;;;;;;5014270;28;20116;-32
2022/03/09 06:23:18;;;;;;;5.78;1.65;;;;;;;;;;5014247;28;20034;-33
2022/03/09 06:25:45;;;;;;;5.20;1.40;;;;;;;;;;5014165;28;20026;-35
2022/03/09 06:28:12;;;;;;;5.28;1.20;;;;;;;;;;5014180;28;20481;-33
2022/03/09 06:30:39;;;;;;;8.55;1.80;;;;;;;;;;5013816;28;20088;-33
2022/03/09 06:33:06;;;;;;;8.82;2.05;;;;;;;;;;5013577;28;20042;-33
2022/03/09 06:35:33;;;;;;;7.20;2.00;;;;;;;;;;5014001;28;20038;-33
2022/03/09 06:38:00;;;;;;;4.57;1.30;;;;;;;;;;5013922;28;20049;-33
2022/03/09 06:40:27;;;;;;;3.55;1.55;;;;;;;;;;5013723;28;20075;-33
2022/03/09 06:42:54;;;;;;;4.93;1.30;;;;;;;;;;5013879;28;20080;-33
2022/03/09 06:45:21;;;;;;;2.97;1.50;;;;;;;;;;5013797;28;20028;-33
2022/03/09 06:47:48;;;;;;;5.07;1.58;;;;;;;;;;5013217;28;20498;-33
2022/03/09 06:50:15;;;;;;;4.18;1.17;;;;;;;;;;5013504;28;20045;-33
2022/03/09 06:52:42;;;;;;;1.88;1.10;;;;;;;;;;5013885;28;20135;-33
2022/03/09 06:55:12;;;;;;;7.55;1.60;;;;;;;;;;5011813;28;20041;-30
2022/03/09 06:57:39;;;;;;;7.00;1.70;;;;;;;;;;5013434;28;20479;-30
2022/03/09 07:00:08;;;;;;;4.15;1.30;;;;;;;;;;5012975;28;20026;-30
2022/03/09 07:02:35;;;;;;;7.03;1.58;;;;;;;;;;5013439;28;20034;-30
2022/03/09 07:05:02;;;;;;;4.65;1.70;;;;;;;;;;5013380;28;20026;-30
2022/03/09 07:07:29;;;;;;;7.32;1.83;;;;;;;;;;5013416;28;20026;-30
2022/03/09 07:09:56;;;;;;;5.70;1.30;;;;;;;;;;5013264;28;20500;-30
2022/03/09 07:12:23;;;;;;;5.22;1.30;;;;;;;;;;5013264;28;20025;-30
2022/03/09 07:14:50;;;;;;;4.03;1.13;;;;;;;;;;5013179;28;20443;-30
2022/03/09 07:17:17;;;;;;;9.85;1.77;;;;;;;;;;5013260;28;20022;-30
2022/03/09 07:19:44;;;;;;;6.25;1.65;;;;;;;;;;5013037;28;20022;-31
2022/03/09 07:22:11;;;;;;;4.30;1.60;;;;;;;;;;5013193;28;20076;-30
2022/03/09 07:24:38;;;;;;;8.27;1.30;;;;;;;;;;5013093;28;20058;-30
2022/03/09 07:27:05;;;;;;;6.75;1.45;;;;;;;;;;5013042;28;20048;-30
2022/03/09 07:29:32;;;;;;;7.38;1.40;;;;;;;;;;5012888;28;20041;-30
2022/03/09 07:31:59;;;;;;;6.47;1.83;;;;;;;;;;5013002;28;20054;-30
2022/03/09 07:34:26;;;;;;;8.88;2.08;;;;;;;;;;5012945;28;20044;-30
2022/03/09 07:36:58;;;;;;;4.32;1.25;;;;;;;;;;5012879;28;20449;-30
2022/03/09 07:39:27;;;;;;;3.50;1.60;;;;;;;;;;5012693;28;20041;-30
2022/03/09 07:41:54;;;;;;;3.92;1.08;;;;;;;;;;5012865;28;20076;-30
2022/03/09 07:44:22;;;;;;;7.63;1.30;;;;;;;;;;5012824;28;20033;-31
2022/03/09 07:46:49;;;;;;;3.30;1.30;;;;;;;;;;5012830;28;20026;-30
2022/03/09 07:49:17;;;;;;;7.68;1.23;;;;;;;;;;5012830;28;20030;-30
2022/03/09 07:51:44;;;;;;;9.45;1.00;;;;;;;;;;5012462;28;20041;-30
2022/03/09 07:54:11;;;;;;;7.72;1.20;;;;;;;;;;5012525;28;20091;-30
2022/03/09 07:56:39;;;;;;;6.38;1.52;;;;;;;;;;5012459;28;20030;-30
2022/03/09 07:59:07;;;;;;;9.35;1.13;;;;;;;;;;5012024;28;20083;-30
2022/03/09 08:01:34;;;;;;;17.90;1.77;;;;;;;;;;5011798;28;20412;-33
2022/03/09 08:04:01;;;;;;;10.93;1.10;;;;;;;;;;5012238;28;20384;-32
2022/03/09 08:06:28;;;;;;;9.75;1.10;;;;;;;;;;5012121;28;20396;-32
2022/03/09 08:08:55;;;;;;;7.45;0.85;;;;;;;;;;5012087;28;20117;-32
2022/03/09 08:11:22;;;;;;;12.07;0.80;;;;;;;;;;5012170;28;20056;-32
2022/03/09 08:13:50;;;;;;;7.90;0.95;;;;;;;;;;5012091;28;20026;-32
2022/03/09 08:16:17;;;;;;;7.65;0.80;;;;;;;;;;5012473;28;20038;-32
2022/03/09 08:18:44;;;;;;;7.40;0.93;;;;;;;;;;5010574;28;20041;-32
2022/03/09 08:21:11;;;;;;;8.40;0.85;;;;;;;;;;4994057;28;20448;-31
2022/03/09 08:23:38;;;;;;;11.95;1.70;;;;;;;;;;5012070;28;20449;-32
2022/03/09 08:26:04;;;;;;;9.57;1.13;;;;;;;;;;5012167;28;20349;-32
2022/03/09 08:28:31;;;;;;;12.35;0.95;;;;;;;;;;5011918;28;20033;-29
2022/03/09 08:30:58;;;;;;;13.02;1.38;;;;;;;;;;5011955;28;20030;-30
2022/03/09 08:33:25;;;;;;;3.17;0.70;;;;;;;;;;5011788;28;20104;-30
2022/03/09 08:35:53;;;;;;;7.82;1.17;;;;;;;;;;5012000;28;20046;-31
2022/03/09 08:38:20;;;;;;;28.23;1.98;;;;;;;;;;5011915;28;20514;-31
2022/03/09 08:40:47;;;;;;;10.07;1.13;;;;;;;;;;5011800;28;20034;-31
2022/03/09 08:43:14;;;;;;;10.60;1.98;;;;;;;;;;5011940;28;20022;-32
2022/03/09 08:45:41;;;;;;;8.38;1.55;;;;;;;;;;5011889;28;20037;-31
2022/03/09 08:48:08;;;;;;;12.90;2.00;;;;;;;;;;5011886;28;20026;-32
2022/03/09 08:50:35;;;;;;;10.70;1.67;;;;;;;;;;5011742;28;20480;-32
2022/03/09 08:53:02;;;;;;;14.48;1.55;;;;;;;;;;5011864;28;20068;-32
2022/03/09 08:55:29;;;;;;;9.20;1.00;;;;;;;;;;5011760;28;20583;-31
2022/03/09 08:57:56;;;;;;;10.10;1.02;;;;;;;;;;5011330;28;20022;-32
2022/03/09 09:00:24;;;;;;;7.03;0.93;;;;;;;;;;5011009;28;20052;-31
2022/03/09 09:02:52;;;;;;;17.23;1.52;;;;;;;;;;4994151;28;20488;-31
2022/03/09 09:05:19;;;;;;;11.15;1.00;;;;;;;;;;5011545;28;20036;-32
2022/03/09 09:07:46;;;;;;;10.20;1.67;;;;;;;;;;4994021;28;20030;-32
2022/03/09 09:10:13;;;;;;;11.48;1.23;;;;;;;;;;5011355;28;20038;-32
2022/03/09 09:12:40;;;;;;;33.78;1.70;;;;;;;;;;5014513;28;20488;-31
2022/03/09 09:15:08;;;;;;;8.98;0.90;;;;;;;;;;5015572;28;20032;-31
2022/03/09 09:17:35;;;;;;;8.55;0.98;;;;;;;;;;5015363;28;20030;-32
2022/03/09 09:20:02;;;;;;;18.05;1.45;;;;;;;;;;5015196;28;20038;-32
2022/03/09 09:22:29;;;;;;;24.10;1.25;;;;;;;;;;5015399;28;20065;-32
2022/03/09 09:24:56;;;;;;;12.07;1.13;;;;;;;;;;5015251;28;20026;-32
2022/03/09 09:27:23;;;;;;;7.07;1.02;;;;;;;;;;4997531;28;20419;-32
2022/03/09 09:29:50;;;;;;;16.98;1.85;;;;;;;;;;5015095;28;20054;-32
2022/03/09 09:32:17;;;;;;;35.20;2.90;;;;;;;;;;5008908;28;20050;-33
2022/03/09 09:34:44;;;;;;;9.05;1.27;;;;;;;;;;4974441;28;20073;-32
2022/03/09 09:37:11;;;;;;;9.02;1.10;;;;;;;;;;4976095;28;20039;-34
2022/03/09 09:39:38;;;;;;;22.23;1.65;;;;;;;;;;4976702;28;20022;-31
2022/03/09 09:42:05;;;;;;;33.13;2.47;;;;;;;;;;4992119;28;20060;-32
2022/03/09 09:44:32;;;;;;;43.92;4.18;;;;;;;;;;4976640;28;20019;-33
2022/03/09 09:46:59;;;;;;;27.67;2.40;;;;;;;;;;4983108;28;20116;-36
2022/03/09 09:49:26;;;;;;;30.55;3.33;;;;;;;;;;4977270;28;20038;-34
2022/03/09 09:51:54;;;;;;;20.30;2.30;;;;;;;;;;4974303;28;20047;-33
2022/03/09 09:54:23;;;;;;;15.32;2.33;;;;;;;;;;4974724;28;20038;-33
2022/03/09 09:56:50;;;;;;;18.00;3.20;;;;;;;;;;4981428;28;20381;-35
2022/03/09 09:59:17;;;;;;;16.65;2.80;;;;;;;;;;4994839;28;20034;-33
2022/03/09 10:01:44;;;;;;;19.80;2.10;;;;;;;;;;4993934;28;20050;-35
2022/03/09 10:04:11;;;;;;;19.95;2.60;;;;;;;;;;4994021;28;20176;-34
2022/03/09 10:06:38;;;;;;;16.05;2.30;;;;;;;;;;4994092;28;20038;-34
2022/03/09 10:09:09;;;;;;;18.42;2.28;;;;;;;;;;4994302;28;20037;-36
2022/03/09 10:11:56;;;;;;;19.17;2.25;;;;;;;;;;4994293;28;20034;-33
2022/03/09 10:14:43;;;;;;;15.30;2.47;;;;;;;;;;4993195;28;20038;-34
2022/03/09 10:17:12;;;;;;;9.40;1.70;;;;;;;;;;4994179;28;20038;-35
2022/03/09 10:19:40;;;;;;;29.65;2.33;;;;;;;;;;4994192;28;20089;-33
2022/03/09 10:22:27;;;;;;;23.40;1.83;;;;;;;;;;4991113;28;20116;-35
2022/03/09 10:24:54;;;;;;;24.27;2.03;;;;;;;;;;4978199;28;20049;-38
2022/03/09 10:27:42;;;;;;;16.50;1.73;;;;;;;;;;4992784;28;20022;-34
2022/03/09 10:30:11;;;;;;;14.57;1.40;;;;;;;;;;4994585;28;20030;-35
2022/03/09 10:32:44;;;;;;;11.30;1.90;;;;;;;;;;4988240;28;20046;-37
2022/03/09 10:35:11;;;;;;;18.88;1.40;;;;;;;;;;4990888;28;20500;-38
2022/03/09 10:37:39;;;;;;;16.17;1.30;;;;;;;;;;4994071;28;20497;-34
2022/03/09 10:40:13;;;;;;;22.10;2.08;;;;;;;;;;4993004;28;20041;-35
2022/03/09 10:42:40;;;;;;;21.40;1.73;;;;;;;;;;4993798;28;20035;-36
2022/03/09 10:45:09;;;;;;;27.50;1.85;;;;;;;;;;4993825;28;20150;-43
2022/03/09 10:47:38;;;;;;;12.70;1.50;;;;;;;;;;4993014;28;20038;-36
2022/03/09 10:50:09;;;;;;;13.15;1.52;;;;;;;;;;4993680;28;20080;-37
2022/03/09 10:53:12;;;;;;;19.48;1.70;;;;;;;;;;4993660;28;20092;-36
2022/03/09 10:55:39;;;;;;;22.58;1.90;;;;;;;;;;4933677;29;20039;-44
2022/03/09 10:58:24;;;;;;;15.70;1.90;;;;;;;;;;4966001;28;20074;-37
2022/03/09 11:00:53;;;;;;;26.10;1.90;;;;;;;;;;4974467;28;20041;-33
2022/03/09 11:03:21;;;;;;;22.48;2.00;;;;;;;;;;4973628;28;20414;-34
2022/03/09 11:05:50;;;;;;;23.48;2.03;;;;;;;;;;4973898;28;20035;-35
2022/03/09 11:08:18;;;;;;;27.13;2.10;;;;;;;;;;4972876;28;20031;-34
2022/03/09 11:10:46;;;;;;;21.00;2.15;;;;;;;;;;4973693;28;20043;-33
2022/03/09 11:13:14;;;;;;;28.67;1.85;;;;;;;;;;4973791;28;20054;-34
2022/03/09 11:15:47;;;;;;;21.30;2.17;;;;;;;;;;4973776;28;20040;-33
2022/03/09 11:18:18;;;;;;;15.57;1.85;;;;;;;;;;4972851;28;20062;-33
2022/03/09 11:20:45;;;;;;;19.08;1.60;;;;;;;;;;4973401;28;20039;-35
2022/03/09 11:23:13;;;;;;;13.00;1.40;;;;;;;;;;4973979;28;20093;-33
2022/03/09 11:25:49;;;;;;;11.18;1.38;;;;;;;;;;4973702;28;20037;-34
2022/03/09 11:28:27;;;;;;;10.73;1.38;;;;;;;;;;4972655;28;20781;-33
2022/03/09 11:30:55;;;;;;;16.65;1.80;;;;;;;;;;4973520;28;20038;-33
2022/03/09 11:33:40;;;;;;;10.95;1.17;;;;;;;;;;4973178;28;20054;-40
2022/03/09 11:36:30;;;;;;;20.35;1.90;;;;;;;;;;4973449;28;20117;-39
2022/03/09 11:39:22;;;;;;;28.85;1.70;;;;;;;;;;4971896;28;20070;-38
2022/03/09 11:41:49;;;;;;;11.30;1.30;;;;;;;;;;4973222;28;20367;-39
2022/03/09 11:44:16;;;;;;;10.70;1.30;;;;;;;;;;4973687;28;20035;-41
2022/03/09 11:46:58;;;;;;;18.73;1.83;;;;;;;;;;4973626;28;20513;-40
2022/03/09 11:49:25;;;;;;;;;;;;;;;;;;4973212;28;20049;-40
2022/03/09 11:52:11;;;;;;;17.10;2.42;;;;;;;;;;4972681;28;19918;-44
2022/03/09 11:54:45;;;;;;;24.95;2.30;;;;;;;;;;4973020;28;20118;-41
2022/03/09 11:57:13;;;;;;;25.67;2.45;;;;;;;;;;4972811;28;20101;-37
2022/03/09 11:59:40;;;;;;;19.98;1.92;;;;;;;;;;4973214;28;20023;-36
2022/03/09 12:02:10;;;;;;;19.38;1.80;;;;;;;;;;4972281;28;20066;-39
2022/03/09 12:04:45;;;;;;;23.20;1.58;;;;;;;;;;4973259;28;20034;-37
2022/03/09 12:07:13;;;;;;;33.80;1.90;;;;;;;;;;4973266;28;20047;-38
2022/03/09 12:09:59;;;;;;;39.25;3.38;;;;;;;;;;4973003;28;20062;-39
2022/03/09 12:12:29;;;;;;;22.83;1.90;;;;;;;;;;4972094;28;20062;-40
2022/03/09 12:15:02;;;;;;;25.65;2.13;;;;;;;;;;4973116;28;20042;-39
2022/03/09 12:17:30;;;;;;;23.45;1.90;;;;;;;;;;4972687;28;20041;-39
2022/03/09 12:20:17;;;;;;;18.63;2.40;;;;;;;;;;4972692;28;20429;-40
2022/03/09 12:23:01;;;;;;;17.20;2.25;;;;;;;;;;4972307;28;20039;-44
2022/03/09 12:25:39;;;;;;;38.55;2.75;;;;;;;;;;4972846;28;20097;-40
2022/03/09 12:28:31;;;;;;;34.83;2.80;;;;;;;;;;4972468;28;20240;-40
2022/03/09 12:31:19;;;;;;;33.05;2.30;;;;;;;;;;4972425;28;20059;-38
2022/03/09 12:33:49;;;;;;;41.55;3.22;;;;;;;;;;4972107;28;20043;-35
2022/03/09 12:36:26;;;;;;;30.13;2.75;;;;;;;;;;4973066;28;20077;-36
2022/03/09 12:38:55;;;;;;;33.38;2.50;;;;;;;;;;4972982;28;20489;-36
2022/03/09 12:41:41;;;;;;;24.42;2.20;;;;;;;;;;4972381;28;20042;-37
2022/03/09 12:44:10;;;;;;;35.55;2.40;;;;;;;;;;4972851;28;20042;-37
2022/03/09 12:46:39;;;;;;;41.03;2.83;;;;;;;;;;4972050;28;20030;-35
2022/03/09 12:49:15;;;;;;;38.95;2.97;;;;;;;;;;4972985;28;20572;-35
2022/03/09 12:51:52;;;;;;;39.67;3.65;;;;;;;;;;4972666;28;20089;-36
2022/03/09 12:54:31;;;;;;;28.40;2.05;;;;;;;;;;4972796;28;20097;-35
2022/03/09 12:57:05;;;;;;;32.70;2.80;;;;;;;;;;4971901;28;20042;-36
2022/03/09 12:59:33;;;;;;;23.23;2.20;;;;;;;;;;4972164;28;20070;-34
2022/03/09 13:01:59;;;;;;;29.50;2.72;;;;;;;;;;5007477;28;20116;-34
2022/03/09 13:04:26;;;;;;;23.50;2.33;;;;;;;;;;5011638;28;20026;-34
2022/03/09 13:06:55;;;;;;;25.52;1.98;;;;;;;;;;5011579;28;20030;-34
2022/03/09 13:09:23;;;;;;;22.88;1.70;;;;;;;;;;4993531;28;20446;-35
2022/03/09 13:11:50;;;;;;;27.92;2.08;;;;;;;;;;5011180;28;20092;-35
2022/03/09 13:14:21;;;;;;;26.85;1.73;;;;;;;;;;5011388;28;20091;-35
2022/03/09 13:17:08;;;;;;;26.48;2.13;;;;;;;;;;5011226;28;20018;-34
2022/03/09 13:19:36;;;;;;;37.40;2.40;;;;;;;;;;5011176;28;20108;-35
2022/03/09 13:22:04;;;;;;;35.40;3.20;;;;;;;;;;5011455;28;20041;-35
2022/03/09 13:24:31;;;;;;;32.75;2.58;;;;;;;;;;5011079;28;20026;-34
2022/03/09 13:26:58;;;;;;;26.23;2.80;;;;;;;;;;5011414;28;20116;-35
2022/03/09 13:29:25;;;;;;;36.88;2.47;;;;;;;;;;5011307;28;20101;-34
2022/03/09 13:32:00;;;;;;;46.50;2.30;;;;;;;;;;5010738;28;20073;-34
2022/03/09 13:34:33;;;;;;;33.17;2.47;;;;;;;;;;5011329;28;20030;-35
2022/03/09 13:37:08;;;;;;;28.00;2.47;;;;;;;;;;5011147;28;20022;-34
2022/03/09 13:39:39;;;;;;;34.85;2.50;;;;;;;;;;5010848;28;20611;-35
2022/03/09 13:42:07;;;;;;;22.98;2.22;;;;;;;;;;5011127;28;20116;-35
2022/03/09 13:44:34;;;;;;;29.25;2.03;;;;;;;;;;5011335;28;20488;-35
2022/03/09 13:47:06;;;;;;;31.25;1.90;;;;;;;;;;5010914;28;20030;-34
2022/03/09 13:49:47;;;;;;;45.30;2.67;;;;;;;;;;4994957;28;20045;-35
2022/03/09 13:52:24;;;;;;;33.45;3.20;;;;;;;;;;4979153;28;20042;-34
2022/03/09 13:54:52;;;;;;;27.67;2.70;;;;;;;;;;4979242;28;20050;-34
2022/03/09 13:57:36;;;;;;;35.22;3.10;;;;;;;;;;4980707;28;20393;-34
2022/03/09 14:00:10;;;;;;;26.77;2.47;;;;;;;;;;4983499;28;20114;-36
2022/03/09 14:02:37;;;;;;;28.15;3.22;;;;;;;;;;4976790;28;20038;-35
2022/03/09 14:05:06;;;;;;;48.28;3.58;;;;;;;;;;4993595;28;20027;-37
2022/03/09 14:07:39;;;;;;;32.70;2.97;;;;;;;;;;4994103;28;20396;-37
2022/03/09 14:10:14;;;;;;;25.20;2.60;;;;;;;;;;4993469;28;20038;-32
2022/03/09 14:12:42;;;;;;;26.90;2.75;;;;;;;;;;4986552;28;20089;-34
2022/03/09 14:15:09;;;;;;;24.65;2.30;;;;;;;;;;4979893;28;20034;-35
2022/03/09 14:17:36;;;;;;;18.58;1.95;;;;;;;;;;4973914;28;20469;-34
2022/03/09 14:20:04;;;;;;;23.40;2.40;;;;;;;;;;4977972;28;20053;-36
2022/03/09 14:22:40;;;;;;;18.65;2.30;;;;;;;;;;4975209;28;20038;-37
2022/03/09 14:25:07;;;;;;;16.63;2.15;;;;;;;;;;4974214;28;20038;-34
2022/03/09 14:27:35;;;;;;;18.83;2.10;;;;;;;;;;4974339;28;20568;-49
2022/03/09 14:30:04;;;;;;;16.63;2.30;;;;;;;;;;4973996;28;20070;-39
2022/03/09 14:32:31;;;;;;;15.55;1.90;;;;;;;;;;4980079;28;20535;-38
2022/03/09 14:34:58;;;;;;;16.77;2.30;;;;;;;;;;4977965;28;20027;-38
2022/03/09 14:37:26;;;;;;;21.98;2.38;;;;;;;;;;4973626;28;20686;-39
2022/03/09 14:39:53;;;;;;;15.57;2.13;;;;;;;;;;4980596;28;20034;-38
2022/03/09 14:42:20;;;;;;;13.32;1.92;;;;;;;;;;4980958;28;20038;-37
2022/03/09 14:44:47;;;;;;;16.20;2.15;;;;;;;;;;4975103;28;20042;-37
2022/03/09 14:47:14;;;;;;;30.75;2.10;;;;;;;;;;4974488;28;20034;-38